createdAt,value
2023-04-30T00:01:30.323Z,2.50
2023-04-30T00:04:00.283Z,5.73
2023-04-30T00:06:31.770Z,6.13
2023-04-30T00:09:01.592Z,5.13
2023-04-30T00:11:34.031Z,3.47
2023-04-30T00:14:09.499Z,4.63
2023-04-30T00:16:42.129Z,3.33
2023-04-30T00:19:13.812Z,5.50
2023-04-30T00:21:54.266Z,6.13
2023-04-30T00:24:24.098Z,6.30
2023-04-30T00:26:59.949Z,3.63
2023-04-30T00:29:35.786Z,6.50
2023-04-30T00:32:08.655Z,3.77
2023-04-30T01:06:17.710Z,3.80
2023-04-30T01:08:48.638Z,7.10
2023-04-30T01:11:27.948Z,6.17
2023-04-30T01:14:08.442Z,6.27
2023-04-30T01:16:43.371Z,4.57
2023-04-30T01:19:28.656Z,4.50
2023-04-30T01:22:05.423Z,3.33
2023-04-30T01:24:57.325Z,5.30
2023-04-30T01:27:40.852Z,4.10
2023-04-30T01:30:14.944Z,3.10
2023-04-30T01:32:44.833Z,5.57
2023-04-30T01:35:14.671Z,4.27
2023-04-30T01:37:55.733Z,5.07
2023-04-30T01:40:31.343Z,4.80
2023-04-30T01:43:08.597Z,6.23
2023-04-30T01:45:58.004Z,6.63
2023-04-30T01:48:43.307Z,9.27
2023-04-30T01:51:22.620Z,5.17
2023-04-30T01:53:52.712Z,3.17
2023-04-30T01:56:30.251Z,6.87
2023-04-30T01:59:00.644Z,4.73
2023-04-30T02:01:35.580Z,6.70
2023-04-30T02:04:05.593Z,6.47
2023-04-30T02:06:35.960Z,6.07
2023-04-30T02:09:07.259Z,5.10
2023-04-30T02:11:37.092Z,2.90
2023-04-30T02:14:07.040Z,2.63
2023-04-30T02:16:39.881Z,3.90
2023-04-30T02:19:09.883Z,3.17
2023-04-30T02:21:39.756Z,5.00
2023-04-30T02:24:10.220Z,3.67
2023-04-30T02:26:40.020Z,2.63
2023-04-30T02:29:09.856Z,3.10
2023-04-30T02:31:42.420Z,4.80
2023-04-30T02:34:12.294Z,4.03
2023-04-30T02:36:42.156Z,5.50
2023-04-30T02:39:12.011Z,2.83
2023-04-30T02:41:41.859Z,3.33
2023-04-30T02:44:11.785Z,8.43
2023-04-30T02:46:47.722Z,4.30
2023-04-30T02:49:20.808Z,4.23
2023-04-30T02:51:50.890Z,3.33
2023-04-30T02:54:23.979Z,4.60
2023-04-30T02:57:00.020Z,3.20
2023-04-30T02:59:33.577Z,4.67
2023-04-30T03:45:19.429Z,4.20
2023-04-30T03:47:49.319Z,4.70
2023-04-30T03:50:20.764Z,5.53
2023-04-30T03:52:50.770Z,7.33
2023-04-30T03:55:20.772Z,4.73
2023-04-30T03:57:50.723Z,3.50
2023-04-30T04:00:23.454Z,3.40
2023-04-30T04:02:53.568Z,5.33
2023-04-30T04:05:23.491Z,7.70
2023-04-30T04:07:53.846Z,5.30
2023-04-30T04:10:23.642Z,5.90
2023-04-30T04:12:53.936Z,5.93
2023-04-30T04:15:26.446Z,4.87
2023-04-30T04:17:56.371Z,3.23
2023-04-30T04:20:26.291Z,5.10
2023-04-30T04:22:56.374Z,4.50
2023-04-30T04:25:27.675Z,4.53
2023-04-30T04:27:57.540Z,4.63
2023-04-30T04:30:30.069Z,4.33
2023-04-30T04:33:00.759Z,5.10
2023-04-30T04:35:31.345Z,5.13
2023-04-30T04:38:01.661Z,3.13
2023-04-30T04:40:31.874Z,4.97
2023-04-30T04:43:01.763Z,4.90
2023-04-30T04:45:34.476Z,4.17
2023-04-30T04:48:04.340Z,4.27
2023-04-30T04:50:37.436Z,7.63
2023-04-30T04:53:07.456Z,8.97
2023-04-30T04:55:37.414Z,6.53
2023-04-30T04:58:07.369Z,7.37
2023-04-30T05:00:39.893Z,6.97
2023-04-30T05:03:10.637Z,8.80
2023-04-30T05:05:40.616Z,5.63
2023-04-30T05:08:10.476Z,8.13
2023-04-30T05:10:43.470Z,6.03
2023-04-30T05:13:13.564Z,7.57
2023-04-30T05:15:46.239Z,5.90
2023-04-30T05:18:16.533Z,4.90
2023-04-30T05:20:46.468Z,4.53
2023-04-30T05:23:16.385Z,4.30
2023-04-30T05:25:46.948Z,5.27
2023-04-30T05:28:16.835Z,5.37
2023-04-30T05:30:49.550Z,8.20
2023-04-30T05:33:19.417Z,5.53
2023-04-30T05:35:49.287Z,7.27
2023-04-30T05:38:19.133Z,4.73
2023-04-30T05:40:49.463Z,5.53
2023-04-30T05:43:19.286Z,4.77
2023-04-30T05:45:54.903Z,6.57
2023-04-30T05:48:27.095Z,6.63
2023-04-30T05:50:56.875Z,7.83
2023-04-30T05:53:26.699Z,5.10
2023-04-30T05:55:56.570Z,7.03
2023-04-30T05:58:26.443Z,6.57
2023-04-30T06:00:59.469Z,7.70
2023-04-30T06:03:29.312Z,4.17
2023-04-30T06:05:59.180Z,7.43
2023-04-30T06:08:30.018Z,7.37
2023-04-30T06:24:59.676Z,6.23
2023-04-30T06:27:37.830Z,5.30
2023-04-30T06:30:13.703Z,8.10
2023-04-30T06:32:46.504Z,6.17
2023-04-30T06:35:21.303Z,6.73
2023-04-30T06:37:51.517Z,8.53
2023-04-30T06:40:41.044Z,7.23
2023-04-30T06:43:14.998Z,7.17
2023-04-30T06:45:51.084Z,5.53
2023-04-30T06:48:22.617Z,5.00
2023-04-30T06:50:58.277Z,10.30
2023-04-30T06:53:28.246Z,7.97
2023-04-30T06:56:01.240Z,8.23
2023-04-30T06:58:33.273Z,8.97
2023-04-30T07:01:03.676Z,8.43
2023-04-30T07:03:34.028Z,8.60
2023-04-30T07:06:12.238Z,9.17
2023-04-30T07:08:46.872Z,10.30
2023-04-30T07:11:19.276Z,8.07
2023-04-30T07:13:49.087Z,5.23
2023-04-30T07:16:21.693Z,6.20
2023-04-30T07:18:54.440Z,5.60
2023-04-30T07:21:28.050Z,7.40
2023-04-30T07:24:02.563Z,6.57
2023-04-30T07:26:40.681Z,7.07
2023-04-30T07:29:16.520Z,5.23
2023-04-30T07:31:46.381Z,9.73
2023-04-30T07:34:22.412Z,11.87
2023-04-30T07:36:57.551Z,7.67
2023-04-30T07:39:27.332Z,7.27
2023-04-30T07:41:57.439Z,10.87
2023-04-30T07:44:27.364Z,7.17
2023-04-30T07:46:58.806Z,8.90
2023-04-30T07:49:35.715Z,7.30
2023-04-30T07:52:11.394Z,5.40
2023-04-30T07:54:42.904Z,5.73
2023-04-30T07:57:18.581Z,7.13
2023-04-30T07:59:51.421Z,7.87
2023-04-30T08:02:23.050Z,8.53
2023-04-30T08:05:01.496Z,6.50
2023-04-30T08:07:33.948Z,11.33
2023-04-30T08:10:05.121Z,10.43
2023-04-30T08:12:37.212Z,5.10
2023-04-30T08:15:08.650Z,7.47
2023-04-30T08:17:40.294Z,8.30
2023-04-30T08:20:14.068Z,8.20
2023-04-30T08:22:46.734Z,5.83
2023-04-30T08:25:19.490Z,7.97
2023-04-30T08:27:49.445Z,7.30
2023-04-30T08:30:20.573Z,7.63
2023-04-30T08:32:56.051Z,8.00
2023-04-30T08:35:32.794Z,6.67
2023-04-30T08:38:20.533Z,8.83
2023-04-30T08:41:09.918Z,5.93
2023-04-30T08:43:46.035Z,4.73
2023-04-30T08:46:27.188Z,7.07
2023-04-30T08:49:11.177Z,13.50
2023-04-30T08:51:51.720Z,4.93
2023-04-30T08:54:29.499Z,5.83
2023-04-30T08:57:06.002Z,6.57
2023-04-30T08:59:36.011Z,5.37
2023-04-30T09:02:10.875Z,7.00
2023-04-30T09:04:49.891Z,7.40
2023-04-30T09:07:27.228Z,9.40
2023-04-30T09:10:03.401Z,6.80
2023-04-30T09:12:43.355Z,6.40
2023-04-30T09:15:14.589Z,5.83
2023-04-30T09:17:52.180Z,9.37
2023-04-30T09:20:36.400Z,5.90
2023-04-30T09:23:13.431Z,6.03
2023-04-30T09:25:46.660Z,5.80
2023-04-30T09:28:25.689Z,4.43
2023-04-30T09:30:56.158Z,3.53
2023-04-30T09:33:26.229Z,6.27
2023-04-30T09:36:01.594Z,8.30
2023-04-30T09:38:35.110Z,4.57
2023-04-30T09:41:10.391Z,8.70
2023-04-30T09:43:48.960Z,5.83
2023-04-30T09:46:25.716Z,8.30
2023-04-30T09:49:02.524Z,5.27
2023-04-30T09:51:33.026Z,7.17
2023-04-30T09:54:05.898Z,4.30
2023-04-30T09:56:42.697Z,7.23
2023-04-30T09:59:15.593Z,5.17
2023-04-30T10:01:49.422Z,6.17
2023-04-30T10:04:22.547Z,5.23
2023-04-30T10:07:04.161Z,5.33
2023-04-30T10:09:42.754Z,3.80
2023-04-30T10:12:21.397Z,4.65
2023-04-30T10:15:01.114Z,6.17
2023-04-30T10:17:37.456Z,4.20
2023-04-30T10:20:11.816Z,5.87
2023-04-30T10:22:48.466Z,4.20
2023-04-30T10:25:22.078Z,5.37
2023-04-30T10:28:02.588Z,5.80
2023-04-30T10:53:30.134Z,6.78
2023-04-30T10:56:07.025Z,6.60
2023-04-30T10:58:38.772Z,7.53
2023-04-30T11:01:11.639Z,5.28
2023-04-30T11:03:45.074Z,3.85
2023-04-30T11:06:16.218Z,5.22
2023-04-30T11:08:50.589Z,3.03
2023-04-30T11:11:23.073Z,6.60
2023-04-30T11:14:04.383Z,4.38
2023-04-30T11:16:34.696Z,4.63
2023-04-30T11:19:11.531Z,6.38
2023-04-30T11:21:44.036Z,4.80
2023-04-30T11:24:16.471Z,5.65
2023-04-30T11:27:07.591Z,6.35
2023-04-30T11:29:38.020Z,4.88
2023-04-30T11:32:08.727Z,5.83
2023-04-30T11:53:34.788Z,4.03
2023-04-30T11:56:07.869Z,5.05
2023-04-30T11:58:39.380Z,8.87
2023-04-30T12:01:11.102Z,5.68
2023-04-30T12:03:45.832Z,6.60
2023-04-30T12:06:16.137Z,9.20
2023-04-30T12:08:50.230Z,7.28
2023-04-30T12:11:33.802Z,6.65
2023-04-30T12:45:04.279Z,4.07
2023-04-30T12:47:38.263Z,4.88
2023-04-30T12:50:16.937Z,4.27
2023-04-30T12:52:49.472Z,4.15
2023-04-30T12:55:29.673Z,6.63
2023-04-30T12:58:13.160Z,4.50
2023-04-30T13:00:52.717Z,3.50
2023-04-30T13:03:42.929Z,3.63
2023-04-30T13:06:13.309Z,5.78
2023-04-30T13:08:56.881Z,3.73
2023-04-30T13:11:28.984Z,5.33
2023-04-30T13:13:58.856Z,3.50
2023-04-30T13:16:32.574Z,5.53
2023-04-30T13:19:02.680Z,3.40
2023-04-30T13:21:33.054Z,3.80
2023-04-30T13:24:02.989Z,3.78
2023-04-30T13:26:33.045Z,4.70
2023-04-30T13:29:02.846Z,2.30
2023-04-30T13:31:35.505Z,3.97
2023-04-30T13:34:05.358Z,5.47
2023-04-30T13:36:36.284Z,4.22
2023-04-30T13:39:07.135Z,4.88
2023-04-30T13:41:36.987Z,3.47
2023-04-30T13:44:06.869Z,4.47
2023-04-30T13:46:39.445Z,3.43
2023-04-30T13:49:09.345Z,4.88
2023-04-30T13:51:39.153Z,3.57
2023-04-30T13:54:09.028Z,3.10
2023-04-30T13:56:38.973Z,3.97
2023-04-30T13:59:08.774Z,4.00
2023-04-30T14:01:41.679Z,4.63
2023-04-30T14:04:11.512Z,5.05
2023-04-30T14:06:42.180Z,3.83
2023-04-30T14:09:12.113Z,3.53
2023-04-30T14:11:42.255Z,5.13
2023-04-30T14:14:12.432Z,4.50
2023-04-30T14:16:46.317Z,2.80
2023-04-30T14:19:19.210Z,2.47
2023-04-30T14:21:49.629Z,3.90
2023-04-30T14:24:20.293Z,4.47
2023-04-30T14:26:50.120Z,4.23
2023-04-30T14:29:21.615Z,3.80
2023-04-30T14:31:54.375Z,3.80
2023-04-30T14:34:24.761Z,4.00
2023-04-30T14:36:57.024Z,4.23
2023-04-30T14:39:41.590Z,2.87
2023-04-30T14:42:13.645Z,3.20
2023-04-30T14:44:46.418Z,3.35
2023-04-30T14:47:37.538Z,2.72
2023-04-30T14:50:08.269Z,2.70
2023-04-30T15:15:54.360Z,5.32
2023-04-30T15:21:52.971Z,5.20
2023-04-30T15:24:22.881Z,4.45
2023-04-30T15:26:54.606Z,3.40
2023-04-30T15:29:24.432Z,3.05
2023-04-30T15:31:54.622Z,3.22
2023-04-30T15:34:25.432Z,3.27
2023-04-30T15:36:59.250Z,3.05
2023-04-30T15:39:32.034Z,3.45
2023-04-30T15:42:06.196Z,4.73
2023-04-30T16:53:52.690Z,5.73
2023-04-30T16:56:25.006Z,7.18
2023-04-30T16:58:54.906Z,4.68
2023-04-30T17:01:24.796Z,5.23
2023-04-30T17:03:55.901Z,7.80
2023-04-30T17:06:28.123Z,7.28
2023-04-30T17:09:00.671Z,6.10
2023-04-30T17:11:31.262Z,10.80
2023-04-30T17:14:01.352Z,5.78
2023-04-30T17:16:31.298Z,11.70
2023-04-30T17:19:01.459Z,10.87
2023-04-30T17:21:31.597Z,7.80
2023-04-30T17:24:04.060Z,9.32
2023-04-30T17:26:34.433Z,8.97
2023-04-30T17:29:04.645Z,9.47
2023-04-30T17:31:37.742Z,13.93
2023-04-30T17:34:07.672Z,10.40
2023-04-30T17:36:37.607Z,9.97
2023-04-30T17:39:09.994Z,10.53
2023-04-30T17:41:39.848Z,9.10
2023-04-30T17:44:09.668Z,11.50
2023-04-30T17:46:39.830Z,11.33
2023-04-30T17:49:10.291Z,14.47
2023-04-30T17:51:43.226Z,12.83
2023-04-30T17:54:17.287Z,9.77
2023-04-30T17:56:47.130Z,8.77
2023-04-30T17:59:16.959Z,9.13
2023-04-30T18:01:46.900Z,8.80
2023-04-30T18:04:21.004Z,10.10
2023-04-30T18:06:51.687Z,10.47
2023-04-30T18:09:24.185Z,9.53
2023-04-30T18:11:54.154Z,10.73
2023-04-30T18:14:23.982Z,9.10
2023-04-30T18:16:56.186Z,9.60
2023-04-30T18:19:26.067Z,9.53
2023-04-30T18:21:57.005Z,10.10
2023-04-30T18:24:29.425Z,8.20
2023-04-30T18:27:00.120Z,10.73
2023-04-30T18:29:29.930Z,9.20
2023-04-30T18:31:59.840Z,11.40
2023-04-30T18:34:30.332Z,13.80
2023-04-30T18:37:01.494Z,12.97
2023-04-30T18:39:33.974Z,16.30
2023-04-30T18:42:10.003Z,16.20
2023-04-30T18:44:40.037Z,13.03
2023-04-30T18:47:13.691Z,14.57
2023-04-30T18:49:43.532Z,12.03
2023-04-30T18:52:17.917Z,20.03
2023-04-30T18:54:52.422Z,19.00
2023-04-30T18:57:31.336Z,14.47
2023-04-30T19:00:01.173Z,14.83
2023-04-30T19:02:32.254Z,11.53
2023-04-30T19:05:22.417Z,13.10
2023-04-30T19:07:52.266Z,15.47
2023-04-30T19:10:24.747Z,15.87
2023-04-30T19:12:56.324Z,14.30
2023-04-30T19:15:27.445Z,15.20
2023-04-30T19:17:58.817Z,13.03
2023-04-30T19:20:31.018Z,14.47
2023-04-30T19:23:06.219Z,13.03
2023-04-30T19:25:40.741Z,15.47
2023-04-30T19:28:11.591Z,17.17
2023-04-30T19:30:41.507Z,15.40
2023-04-30T19:33:13.276Z,14.37
2023-04-30T19:35:43.476Z,12.97
2023-04-30T19:38:13.351Z,11.77
2023-04-30T19:40:49.313Z,17.53
2023-04-30T19:43:19.368Z,12.83
2023-04-30T19:45:52.937Z,11.37
2023-04-30T19:48:24.783Z,16.40
2023-04-30T19:50:56.105Z,9.93
2023-04-30T19:53:32.807Z,13.27
2023-04-30T19:56:05.243Z,10.10
2023-04-30T19:58:35.116Z,10.63
2023-04-30T20:01:04.954Z,10.63
2023-04-30T20:03:35.980Z,7.83
2023-04-30T20:06:06.094Z,10.93
2023-04-30T20:08:35.967Z,10.97
2023-04-30T20:11:09.902Z,10.47
2023-04-30T20:13:39.693Z,8.57
2023-04-30T20:16:12.666Z,10.47
2023-04-30T20:18:42.816Z,11.07
2023-04-30T20:21:14.533Z,9.93
2023-04-30T20:23:44.370Z,10.53
2023-04-30T20:26:17.222Z,8.60
2023-04-30T20:28:47.005Z,12.00
2023-04-30T20:31:16.907Z,8.90
2023-04-30T20:33:46.984Z,11.63
2023-04-30T20:36:20.591Z,7.13
2023-04-30T20:38:55.904Z,9.47
2023-04-30T20:41:30.640Z,8.87
2023-04-30T20:44:00.857Z,7.40
2023-04-30T22:14:07.588Z,4.60
2023-04-30T22:16:41.854Z,3.67
2023-04-30T22:19:26.981Z,4.23
2023-04-30T22:24:53.740Z,3.97
2023-04-30T22:27:26.366Z,5.57
2023-04-30T22:30:06.382Z,4.33
2023-04-30T23:08:08.936Z,6.00
2023-04-30T23:10:38.839Z,5.47
2023-04-30T23:13:08.846Z,4.40
2023-04-30T23:15:38.676Z,6.20
2023-04-30T23:18:08.573Z,5.03
2023-04-30T23:20:38.777Z,4.57
2023-04-30T23:23:12.203Z,5.27
2023-04-30T23:25:42.164Z,4.87
2023-04-30T23:28:12.053Z,6.20
2023-04-30T23:30:41.952Z,6.37
2023-04-30T23:33:11.852Z,5.77
2023-04-30T23:35:46.034Z,5.37
2023-04-30T23:38:19.255Z,5.77
2023-04-30T23:40:49.098Z,8.23
2023-04-30T23:43:19.041Z,5.63
2023-04-30T23:45:48.926Z,6.23
2023-04-30T23:48:18.817Z,7.20
2023-04-30T23:50:48.634Z,5.93
2023-04-30T23:53:21.088Z,7.13
2023-04-30T23:55:53.194Z,7.33
2023-04-30T23:58:23.020Z,5.50
